createdAt,value
2019-03-17T00:01:23.726Z,9.30
2019-03-17T00:03:50.964Z,9.30
2019-03-17T00:06:18.047Z,9.29
2019-03-17T00:08:46.215Z,9.39
2019-03-17T00:11:13.502Z,9.35
2019-03-17T00:13:40.923Z,9.37
2019-03-17T00:16:08.230Z,9.35
2019-03-17T00:18:35.366Z,9.30
2019-03-17T00:21:02.399Z,9.30
2019-03-17T00:23:29.455Z,9.20
2019-03-17T00:25:56.637Z,9.19
2019-03-17T00:28:24.068Z,9.17
2019-03-17T00:30:51.113Z,9.16
2019-03-17T00:33:18.252Z,9.25
2019-03-17T00:35:45.405Z,9.29
2019-03-17T00:38:12.455Z,9.34
2019-03-17T00:40:39.617Z,9.45
2019-03-17T00:43:07.054Z,9.41
2019-03-17T00:45:34.508Z,9.41
2019-03-17T00:48:03.820Z,9.32
2019-03-17T00:50:31.279Z,9.35
2019-03-17T00:52:58.465Z,9.26
2019-03-17T00:55:25.674Z,9.28
2019-03-17T00:57:52.739Z,9.33
2019-03-17T01:00:20.978Z,9.29
2019-03-17T01:02:48.355Z,9.26
2019-03-17T01:05:16.651Z,9.27
2019-03-17T01:07:43.984Z,9.11
2019-03-17T01:10:11.071Z,9.15
2019-03-17T01:12:38.134Z,9.15
2019-03-17T01:15:06.100Z,9.13
2019-03-17T01:17:33.175Z,9.18
2019-03-17T01:20:00.373Z,9.15
2019-03-17T01:22:27.586Z,9.06
2019-03-17T01:24:54.930Z,9.05
2019-03-17T01:27:21.984Z,8.96
2019-03-17T01:29:49.076Z,8.92
2019-03-17T01:32:16.485Z,8.83
2019-03-17T01:34:45.387Z,8.86
2019-03-17T01:37:14.043Z,8.86
2019-03-17T01:39:41.153Z,8.83
2019-03-17T01:42:08.220Z,8.88
2019-03-17T01:44:35.406Z,8.95
2019-03-17T01:47:03.986Z,9.07
2019-03-17T01:49:31.024Z,9.13
2019-03-17T01:51:58.076Z,9.19
2019-03-17T01:54:25.171Z,9.21
2019-03-17T01:56:52.235Z,9.31
2019-03-17T01:59:20.367Z,9.35
2019-03-17T02:01:47.460Z,9.41
2019-03-17T02:04:14.489Z,9.49
2019-03-17T02:06:41.892Z,9.57
2019-03-17T02:09:09.261Z,9.69
2019-03-17T02:11:36.436Z,9.74
2019-03-17T02:14:03.491Z,9.77
2019-03-17T02:16:30.568Z,9.72
2019-03-17T02:18:57.894Z,9.72
2019-03-17T02:21:24.933Z,9.75
2019-03-17T02:23:51.990Z,9.69
2019-03-17T02:26:19.528Z,9.64
2019-03-17T02:28:46.563Z,9.59
2019-03-17T02:31:13.655Z,9.56
2019-03-17T02:33:40.993Z,9.55
2019-03-17T02:36:09.113Z,9.58
2019-03-17T02:38:37.264Z,9.64
2019-03-17T02:41:05.125Z,9.63
2019-03-17T02:43:32.172Z,9.58
2019-03-17T02:46:02.757Z,9.61
2019-03-17T02:48:28.482Z,9.64
2019-03-17T02:50:55.506Z,9.65
2019-03-17T02:53:22.557Z,9.60
2019-03-17T02:55:49.620Z,9.54
2019-03-17T02:58:17.046Z,9.56
2019-03-17T03:00:44.138Z,9.56
2019-03-17T03:03:11.149Z,9.62
2019-03-17T03:05:53.928Z,9.60
2019-03-17T03:08:07.696Z,9.59
2019-03-17T03:10:36.520Z,9.51
2019-03-17T03:13:03.527Z,9.50
2019-03-17T03:15:30.608Z,9.63
2019-03-17T03:17:57.630Z,9.66
2019-03-17T03:20:25.034Z,9.64
2019-03-17T03:22:52.144Z,9.59
2019-03-17T03:25:19.194Z,9.58
2019-03-17T03:27:46.254Z,9.61
2019-03-17T03:30:13.334Z,9.58
2019-03-17T03:32:40.534Z,9.51
2019-03-17T03:35:08.133Z,9.44
2019-03-17T03:37:35.266Z,9.43
2019-03-17T03:40:02.646Z,9.40
2019-03-17T03:42:30.371Z,9.40
2019-03-17T03:45:00.608Z,9.39
2019-03-17T03:47:27.713Z,9.42
2019-03-17T03:49:57.139Z,9.35
2019-03-17T03:52:24.502Z,9.32
2019-03-17T03:54:51.538Z,9.36
2019-03-17T03:57:18.592Z,9.26
2019-03-17T03:59:46.058Z,9.25
2019-03-17T04:02:13.406Z,9.25
2019-03-17T04:04:40.656Z,9.25
2019-03-17T04:07:08.794Z,9.26
2019-03-17T04:09:36.193Z,9.23
2019-03-17T04:12:03.459Z,9.26
2019-03-17T04:14:30.950Z,9.27
2019-03-17T04:16:58.312Z,9.25
2019-03-17T04:19:25.378Z,9.31
2019-03-17T04:21:52.701Z,9.34
2019-03-17T04:24:19.742Z,9.43
2019-03-17T04:26:46.784Z,9.48
2019-03-17T04:29:13.986Z,9.49
2019-03-17T04:31:41.448Z,9.53
2019-03-17T04:34:08.467Z,9.44
2019-03-17T04:36:40.349Z,9.42
2019-03-17T04:39:06.624Z,9.43
2019-03-17T04:41:33.695Z,9.38
2019-03-17T04:44:00.782Z,9.28
2019-03-17T04:46:29.015Z,9.25
2019-03-17T04:48:56.122Z,9.24
2019-03-17T04:51:23.414Z,9.26
2019-03-17T04:53:50.461Z,9.30
2019-03-17T04:56:17.491Z,9.35
2019-03-17T04:58:44.561Z,9.32
2019-03-17T05:01:12.895Z,9.38
2019-03-17T05:03:40.296Z,9.38
2019-03-17T05:06:07.342Z,9.42
2019-03-17T05:08:34.403Z,9.42
2019-03-17T05:11:02.554Z,9.49
2019-03-17T05:13:29.575Z,9.53
2019-03-17T05:15:56.703Z,9.64
2019-03-17T05:18:25.212Z,9.61
2019-03-17T05:20:52.464Z,9.68
2019-03-17T05:23:19.514Z,9.67
2019-03-17T05:25:46.566Z,9.66
2019-03-17T05:28:13.670Z,9.70
2019-03-17T05:30:40.707Z,9.76
2019-03-17T05:33:08.125Z,9.80
2019-03-17T05:35:35.314Z,9.88
2019-03-17T05:38:02.334Z,9.96
2019-03-17T05:40:29.736Z,10.03
2019-03-17T05:42:56.802Z,10.16
2019-03-17T05:45:24.667Z,10.14
2019-03-17T05:47:52.183Z,10.16
2019-03-17T05:50:19.277Z,10.30
2019-03-17T05:52:46.303Z,10.37
2019-03-17T05:55:13.347Z,10.38
2019-03-17T05:57:40.406Z,10.44
2019-03-17T06:00:09.808Z,10.48
2019-03-17T06:02:36.856Z,10.56
2019-03-17T06:05:04.700Z,10.64
2019-03-17T06:07:31.761Z,10.74
2019-03-17T06:09:58.786Z,10.84
2019-03-17T06:12:25.848Z,10.90
2019-03-17T06:14:52.993Z,11.15
2019-03-17T06:17:20.097Z,11.33
2019-03-17T06:19:47.175Z,11.41
2019-03-17T06:22:18.467Z,11.45
2019-03-17T06:24:46.558Z,11.56
2019-03-17T06:27:13.624Z,11.49
2019-03-17T06:29:41.076Z,11.33
2019-03-17T06:32:10.532Z,11.23
2019-03-17T06:34:37.585Z,11.22
2019-03-17T06:37:04.730Z,11.31
2019-03-17T06:39:32.465Z,11.31
2019-03-17T06:41:59.501Z,11.22
2019-03-17T06:44:26.539Z,11.21
2019-03-17T06:46:53.599Z,11.21
2019-03-17T06:49:20.654Z,11.19
2019-03-17T06:51:47.715Z,11.24
2019-03-17T06:54:15.263Z,11.32
2019-03-17T06:56:42.322Z,11.31
2019-03-17T06:59:09.348Z,11.28
2019-03-17T07:01:36.696Z,11.38
2019-03-17T07:04:03.924Z,11.34
2019-03-17T07:06:30.967Z,11.27
2019-03-17T07:08:58.022Z,11.30
2019-03-17T07:11:25.086Z,11.35
2019-03-17T07:13:52.119Z,11.38
2019-03-17T07:16:19.810Z,11.48
2019-03-17T07:18:46.906Z,11.48
2019-03-17T07:21:13.981Z,11.54
2019-03-17T07:23:42.831Z,11.60
2019-03-17T07:26:10.100Z,11.63
2019-03-17T07:28:37.145Z,11.64
2019-03-17T07:31:05.361Z,11.98
2019-03-17T07:33:32.625Z,12.19
2019-03-17T07:35:59.662Z,12.19
2019-03-17T07:38:26.826Z,12.45
2019-03-17T07:40:53.914Z,12.42
2019-03-17T07:43:21.009Z,12.55
2019-03-17T07:45:48.519Z,12.58
2019-03-17T07:48:15.676Z,12.61
2019-03-17T07:50:42.786Z,12.59
2019-03-17T07:53:10.185Z,12.55
2019-03-17T07:55:37.231Z,12.23
2019-03-17T07:58:04.877Z,12.13
2019-03-17T08:00:32.548Z,12.11
2019-03-17T08:03:00.246Z,12.36
2019-03-17T08:05:27.417Z,12.28
2019-03-17T08:07:54.828Z,12.09
2019-03-17T08:10:21.882Z,12.04
2019-03-17T08:12:48.950Z,11.91
2019-03-17T08:15:16.397Z,12.00
2019-03-17T08:17:43.842Z,12.10
2019-03-17T08:20:11.326Z,12.17
2019-03-17T08:22:39.476Z,12.34
2019-03-17T08:25:06.727Z,12.39
2019-03-17T08:27:34.886Z,12.49
2019-03-17T08:30:01.954Z,12.33
2019-03-17T08:32:30.286Z,12.43
2019-03-17T08:34:57.425Z,12.44
2019-03-17T08:37:24.944Z,12.78
2019-03-17T08:39:52.114Z,12.79
2019-03-17T08:42:22.255Z,12.59
2019-03-17T08:44:51.782Z,13.19
2019-03-17T08:47:18.829Z,13.54
2019-03-17T08:49:45.863Z,13.58
2019-03-17T08:52:15.062Z,13.36
2019-03-17T08:54:43.250Z,12.86
2019-03-17T08:57:10.395Z,12.56
2019-03-17T08:59:37.474Z,12.32
2019-03-17T09:02:04.957Z,12.25
2019-03-17T09:04:32.194Z,12.12
2019-03-17T09:06:59.841Z,12.23
2019-03-17T09:09:28.864Z,12.05
2019-03-17T09:11:56.210Z,11.97
2019-03-17T09:14:23.306Z,12.03
2019-03-17T09:16:50.462Z,11.99
2019-03-17T09:19:17.995Z,12.43
2019-03-17T09:21:45.115Z,12.73
2019-03-17T09:24:17.069Z,12.54
2019-03-17T09:26:41.569Z,12.25
2019-03-17T09:29:08.690Z,12.23
2019-03-17T09:31:35.741Z,12.54
2019-03-17T09:34:06.697Z,12.85
2019-03-17T09:36:35.627Z,12.92
2019-03-17T09:39:03.863Z,12.82
2019-03-17T09:41:31.306Z,12.90
2019-03-17T09:43:58.349Z,13.35
2019-03-17T09:46:25.414Z,13.47
2019-03-17T09:48:52.920Z,13.68
2019-03-17T09:51:20.168Z,13.88
2019-03-17T09:53:47.355Z,13.83
2019-03-17T09:56:14.807Z,13.54
2019-03-17T09:58:41.873Z,13.41
2019-03-17T10:01:09.029Z,13.16
2019-03-17T10:03:36.194Z,13.06
2019-03-17T10:06:03.268Z,12.69
2019-03-17T10:08:30.556Z,12.35
2019-03-17T10:10:57.899Z,12.18
2019-03-17T10:13:25.038Z,12.15
2019-03-17T10:15:52.098Z,11.76
2019-03-17T10:18:19.561Z,11.97
2019-03-17T10:20:47.746Z,11.97
2019-03-17T10:23:14.763Z,12.04
2019-03-17T10:25:41.812Z,12.04
2019-03-17T10:28:08.917Z,11.74
2019-03-17T10:30:36.302Z,11.79
2019-03-17T10:33:04.625Z,11.79
2019-03-17T10:35:31.824Z,11.87
2019-03-17T10:37:59.423Z,11.73
2019-03-17T10:40:26.483Z,11.29
2019-03-17T10:42:53.574Z,10.92
2019-03-17T10:45:20.799Z,10.70
2019-03-17T10:47:47.882Z,10.52
2019-03-17T10:50:14.996Z,10.43
2019-03-17T10:52:42.195Z,10.50
2019-03-17T10:55:09.892Z,10.61
2019-03-17T10:57:37.293Z,10.91
2019-03-17T11:00:05.366Z,10.93
2019-03-17T11:02:32.935Z,10.78
2019-03-17T11:05:00.466Z,10.70
2019-03-17T11:07:27.497Z,10.68
2019-03-17T11:09:54.901Z,10.57
2019-03-17T11:12:22.049Z,10.38
2019-03-17T11:14:49.169Z,10.35
2019-03-17T11:17:16.769Z,10.27
2019-03-17T11:19:44.239Z,10.12
2019-03-17T11:22:11.280Z,10.11
2019-03-17T11:24:39.186Z,10.01
2019-03-17T11:27:06.262Z,9.81
2019-03-17T11:29:33.631Z,9.82
2019-03-17T11:32:01.330Z,9.77
2019-03-17T11:34:28.659Z,9.77
2019-03-17T11:36:56.002Z,9.79
2019-03-17T11:39:23.406Z,9.90
2019-03-17T11:41:50.507Z,10.04
2019-03-17T11:44:17.587Z,9.81
2019-03-17T11:46:44.669Z,9.65
2019-03-17T11:49:12.294Z,9.37
2019-03-17T11:51:40.535Z,9.03
2019-03-17T11:54:07.591Z,8.73
2019-03-17T11:56:35.161Z,8.75
2019-03-17T11:59:02.994Z,8.39
2019-03-17T12:01:30.174Z,8.22
2019-03-17T12:03:57.658Z,8.12
2019-03-17T12:06:26.540Z,8.12
2019-03-17T12:08:54.725Z,8.07
2019-03-17T12:11:22.526Z,8.02
2019-03-17T12:13:49.548Z,7.89
2019-03-17T12:16:16.848Z,7.73
2019-03-17T12:18:44.325Z,7.65
2019-03-17T12:21:11.719Z,7.60
2019-03-17T12:23:38.806Z,7.55
2019-03-17T12:26:05.967Z,7.45
2019-03-17T12:28:33.460Z,7.36
2019-03-17T12:31:01.948Z,7.30
2019-03-17T12:33:29.909Z,7.20
2019-03-17T12:35:56.997Z,7.17
2019-03-17T12:38:24.189Z,7.09
2019-03-17T12:40:51.471Z,7.19
2019-03-17T12:43:18.525Z,7.12
2019-03-17T12:45:45.596Z,7.12
2019-03-17T12:48:13.070Z,7.21
2019-03-17T12:50:40.144Z,7.37
2019-03-17T12:53:08.419Z,7.40
2019-03-17T12:55:35.484Z,7.38
2019-03-17T12:58:02.762Z,7.36
2019-03-17T13:00:29.815Z,7.58
2019-03-17T13:02:57.515Z,7.61
2019-03-17T13:05:25.198Z,8.01
2019-03-17T13:07:52.259Z,7.96
2019-03-17T13:10:19.364Z,7.83
2019-03-17T13:12:46.663Z,8.16
2019-03-17T13:15:13.786Z,8.01
2019-03-17T13:17:40.880Z,7.78
2019-03-17T13:20:09.553Z,7.91
2019-03-17T13:22:36.760Z,8.24
2019-03-17T13:25:04.302Z,8.22
2019-03-17T13:27:33.914Z,8.33
2019-03-17T13:30:01.042Z,7.91
2019-03-17T13:32:32.206Z,7.79
2019-03-17T13:34:59.268Z,7.84
2019-03-17T13:37:26.332Z,8.07
2019-03-17T13:39:53.435Z,8.08
2019-03-17T13:42:20.930Z,8.12
2019-03-17T13:44:48.325Z,8.15
2019-03-17T13:47:15.552Z,8.32
2019-03-17T13:49:42.820Z,8.49
2019-03-17T13:52:09.902Z,8.55
2019-03-17T13:54:36.972Z,8.59
2019-03-17T13:57:04.403Z,8.69
2019-03-17T13:59:31.486Z,8.33
2019-03-17T14:01:58.556Z,8.29
2019-03-17T14:04:26.111Z,8.20
2019-03-17T14:06:53.191Z,8.47
2019-03-17T14:09:20.294Z,8.80
2019-03-17T14:11:47.795Z,8.69
2019-03-17T14:14:14.865Z,8.61
2019-03-17T14:16:42.806Z,8.87
2019-03-17T14:19:10.283Z,9.03
2019-03-17T14:21:37.388Z,9.03
2019-03-17T14:24:04.628Z,8.94
2019-03-17T14:26:31.865Z,8.94
2019-03-17T14:28:59.113Z,9.11
2019-03-17T14:31:26.245Z,9.08
2019-03-17T14:33:53.852Z,9.28
2019-03-17T14:36:20.988Z,9.50
2019-03-17T14:38:48.307Z,9.79
2019-03-17T14:41:15.371Z,10.09
2019-03-17T14:43:42.462Z,10.56
2019-03-17T14:46:09.516Z,11.36
2019-03-17T14:48:38.077Z,14.05
2019-03-17T14:51:05.161Z,14.14
2019-03-17T14:53:32.338Z,14.87
2019-03-17T14:55:59.472Z,14.40
2019-03-17T14:58:26.662Z,13.65
2019-03-17T15:00:59.842Z,15.08
2019-03-17T15:03:29.006Z,15.51
2019-03-17T15:05:56.506Z,13.86
2019-03-17T15:08:23.729Z,13.53
2019-03-17T15:10:51.103Z,12.99
2019-03-17T15:13:18.459Z,13.17
2019-03-17T15:15:45.582Z,13.28
2019-03-17T15:18:13.100Z,13.42
2019-03-17T15:20:40.335Z,13.44
2019-03-17T15:23:08.878Z,12.73
2019-03-17T15:25:37.061Z,11.48
2019-03-17T15:28:04.366Z,11.04
2019-03-17T15:30:31.489Z,10.79
2019-03-17T15:32:58.599Z,10.85
2019-03-17T15:35:25.851Z,11.09
2019-03-17T15:37:52.991Z,10.83
2019-03-17T15:40:20.189Z,10.71
2019-03-17T15:42:47.928Z,10.56
2019-03-17T15:45:17.551Z,10.56
2019-03-17T15:47:45.889Z,10.47
2019-03-17T15:50:14.371Z,10.46
2019-03-17T15:52:41.557Z,10.33
2019-03-17T15:55:09.539Z,10.37
2019-03-17T15:57:36.689Z,10.45
2019-03-17T16:00:05.651Z,10.28
2019-03-17T16:02:32.867Z,9.87
2019-03-17T16:05:00.778Z,9.77
2019-03-17T16:07:28.208Z,9.64
2019-03-17T16:09:55.526Z,9.91
2019-03-17T16:12:22.929Z,10.24
2019-03-17T16:14:50.278Z,10.29
2019-03-17T16:17:17.472Z,10.24
2019-03-17T16:19:44.552Z,10.24
2019-03-17T16:22:12.096Z,10.07
2019-03-17T16:24:39.205Z,10.00
2019-03-17T16:27:06.372Z,9.97
2019-03-17T16:29:33.520Z,9.82
2019-03-17T16:32:00.658Z,9.10
2019-03-17T16:34:28.003Z,8.74
2019-03-17T16:36:55.308Z,8.37
2019-03-17T16:39:22.439Z,8.06
2019-03-17T16:41:52.761Z,8.13
2019-03-17T16:44:19.911Z,8.07
2019-03-17T16:46:47.116Z,8.22
2019-03-17T16:49:14.513Z,8.19
2019-03-17T16:51:41.645Z,8.00
2019-03-17T16:54:08.951Z,7.77
2019-03-17T16:56:36.018Z,7.60
2019-03-17T16:59:03.134Z,7.58
2019-03-17T17:01:30.507Z,7.52
2019-03-17T17:03:57.571Z,7.43
2019-03-17T17:06:26.489Z,7.37
2019-03-17T17:08:54.247Z,7.34
2019-03-17T17:11:21.346Z,7.24
2019-03-17T17:13:49.814Z,7.18
2019-03-17T17:16:17.375Z,6.93
2019-03-17T17:18:44.452Z,6.83
2019-03-17T17:21:11.537Z,6.79
2019-03-17T17:23:38.612Z,6.76
2019-03-17T17:26:05.933Z,6.78
2019-03-17T17:28:33.115Z,6.82
2019-03-17T17:31:00.563Z,6.87
2019-03-17T17:33:30.665Z,6.84
2019-03-17T17:35:59.049Z,6.92
2019-03-17T17:38:26.838Z,7.07
2019-03-17T17:40:54.208Z,7.19
2019-03-17T17:43:21.498Z,7.23
2019-03-17T17:45:53.059Z,7.17
2019-03-17T17:48:20.502Z,7.03
2019-03-17T17:50:47.852Z,7.05
2019-03-17T17:53:16.781Z,7.04
2019-03-17T17:55:44.813Z,6.94
2019-03-17T17:58:12.159Z,6.84
2019-03-17T18:00:41.216Z,6.86
2019-03-17T18:03:11.056Z,6.92
2019-03-17T18:05:38.227Z,6.98
2019-03-17T18:08:05.444Z,7.05
2019-03-17T18:10:34.423Z,7.00
2019-03-17T18:13:03.134Z,7.01
2019-03-17T18:15:30.250Z,7.01
2019-03-17T18:17:57.324Z,7.00
2019-03-17T18:20:24.894Z,7.02
2019-03-17T18:22:52.243Z,7.23
2019-03-17T18:25:19.568Z,7.22
2019-03-17T18:27:46.964Z,7.21
2019-03-17T18:30:15.174Z,7.26
2019-03-17T18:32:42.262Z,7.33
2019-03-17T18:35:11.551Z,7.33
2019-03-17T18:37:38.719Z,7.32
2019-03-17T18:40:06.847Z,7.23
2019-03-17T18:42:34.154Z,7.08
2019-03-17T18:45:01.312Z,6.97
2019-03-17T18:47:30.630Z,6.91
2019-03-17T18:49:58.154Z,6.93
2019-03-17T18:52:25.519Z,6.99
2019-03-17T18:54:52.587Z,6.92
2019-03-17T18:57:19.672Z,6.92
2019-03-17T18:59:46.858Z,6.93
2019-03-17T19:02:14.054Z,6.80
2019-03-17T19:04:42.423Z,6.79
2019-03-17T19:07:09.510Z,6.93
2019-03-17T19:09:36.627Z,6.76
2019-03-17T19:12:04.076Z,6.53
2019-03-17T19:14:31.183Z,6.25
2019-03-17T19:16:58.264Z,6.10
2019-03-17T19:19:25.355Z,5.93
2019-03-17T19:21:52.881Z,5.93
2019-03-17T19:24:20.078Z,5.98
2019-03-17T19:26:47.188Z,6.00
2019-03-17T19:29:14.628Z,6.01
2019-03-17T19:31:41.913Z,6.05
2019-03-17T19:34:08.963Z,6.03
2019-03-17T19:36:37.131Z,5.94
2019-03-17T19:39:06.063Z,5.82
2019-03-17T19:41:33.196Z,5.67
2019-03-17T19:44:00.318Z,5.57
2019-03-17T19:46:27.386Z,5.54
2019-03-17T19:48:54.471Z,5.50
2019-03-17T19:51:21.558Z,5.42
2019-03-17T19:53:48.608Z,5.33
2019-03-17T19:56:16.260Z,5.36
2019-03-17T19:58:43.354Z,5.30
2019-03-17T20:01:11.569Z,5.32
2019-03-17T20:03:38.676Z,5.31
2019-03-17T20:06:05.934Z,5.11
2019-03-17T20:08:33.731Z,5.07
2019-03-17T20:11:01.474Z,5.10
2019-03-17T20:13:28.714Z,5.08
2019-03-17T20:15:55.837Z,5.14
2019-03-17T20:18:24.004Z,5.15
2019-03-17T20:20:51.085Z,5.16
2019-03-17T20:23:21.364Z,5.04
2019-03-17T20:25:47.978Z,5.00
2019-03-17T20:28:16.461Z,4.86
2019-03-17T20:30:43.758Z,4.85
2019-03-17T20:33:10.894Z,4.81
2019-03-17T20:35:39.416Z,4.80
2019-03-17T20:38:07.557Z,4.74
2019-03-17T20:40:34.697Z,4.73
2019-03-17T20:43:24.119Z,4.65
2019-03-17T20:45:47.613Z,4.57
2019-03-17T20:48:16.587Z,4.56
2019-03-17T20:50:43.919Z,4.65
2019-03-17T20:53:11.034Z,4.76
2019-03-17T20:55:39.969Z,4.80
2019-03-17T20:58:08.136Z,4.92
2019-03-17T21:00:35.881Z,5.10
2019-03-17T21:03:03.508Z,5.32
2019-03-17T21:05:32.616Z,5.47
2019-03-17T21:08:00.081Z,5.10
2019-03-17T21:10:27.149Z,4.40
2019-03-17T21:12:56.027Z,4.07
2019-03-17T21:15:23.178Z,3.97
2019-03-17T21:17:50.584Z,3.92
2019-03-17T21:20:17.727Z,3.91
2019-03-17T21:22:44.816Z,4.03
2019-03-17T21:25:13.263Z,4.04
2019-03-17T21:27:40.340Z,4.02
2019-03-17T21:30:12.431Z,3.95
2019-03-17T21:32:40.164Z,3.91
2019-03-17T21:35:07.263Z,3.93
2019-03-17T21:37:34.335Z,3.90
2019-03-17T21:40:03.007Z,3.92
2019-03-17T21:42:30.374Z,3.90
2019-03-17T21:44:57.461Z,3.92
2019-03-17T21:47:24.485Z,3.84
2019-03-17T21:49:51.946Z,3.79
2019-03-17T21:52:19.107Z,3.74
2019-03-17T21:54:48.464Z,3.70
2019-03-17T21:57:15.867Z,3.70
2019-03-17T21:59:44.070Z,3.57
2019-03-17T22:02:13.076Z,3.51
2019-03-17T22:04:40.503Z,3.41
2019-03-17T22:07:07.785Z,3.32
2019-03-17T22:09:35.053Z,3.26
2019-03-17T22:12:02.650Z,3.30
2019-03-17T22:14:29.859Z,3.38
2019-03-17T22:16:56.921Z,3.69
2019-03-17T22:19:24.063Z,3.85
2019-03-17T22:22:09.211Z,4.00
2019-03-17T22:25:03.602Z,3.91
2019-03-17T22:27:32.201Z,3.82
2019-03-17T22:29:59.285Z,3.75
2019-03-17T22:32:26.647Z,3.86
2019-03-17T22:34:53.780Z,3.90
2019-03-17T22:37:20.863Z,4.01
2019-03-17T22:39:48.300Z,3.93
2019-03-17T22:42:15.395Z,3.82
2019-03-17T22:44:42.448Z,3.77
2019-03-17T22:47:09.518Z,3.64
2019-03-17T22:49:36.618Z,3.72
2019-03-17T22:52:03.655Z,3.72
2019-03-17T22:54:31.086Z,3.78
2019-03-17T22:56:58.218Z,3.79
2019-03-17T22:59:26.382Z,3.72
2019-03-17T23:01:53.576Z,3.67
2019-03-17T23:04:22.237Z,3.56
2019-03-17T23:06:49.541Z,3.52
2019-03-17T23:09:16.608Z,3.36
2019-03-17T23:11:45.192Z,3.43
2019-03-17T23:14:12.292Z,3.42
2019-03-17T23:16:39.394Z,3.29
2019-03-17T23:19:06.436Z,3.19
2019-03-17T23:21:33.975Z,3.23
2019-03-17T23:24:01.248Z,3.27
2019-03-17T23:26:28.441Z,3.27
2019-03-17T23:28:55.703Z,3.34
2019-03-17T23:31:22.746Z,3.30
2019-03-17T23:33:49.831Z,3.24
2019-03-17T23:36:16.900Z,3.26
2019-03-17T23:38:57.583Z,3.33
2019-03-17T23:41:36.606Z,3.37
2019-03-17T23:44:04.359Z,3.46
2019-03-17T23:46:31.385Z,3.34
2019-03-17T23:48:58.469Z,3.33
2019-03-17T23:51:27.308Z,3.38
2019-03-17T23:53:54.382Z,3.41
2019-03-17T23:56:21.384Z,3.33
2019-03-17T23:58:49.796Z,3.27
